sensor_id;sensor_type;location;lat;lon;timestamp;P1;durP1;ratioP1;P2;durP2;ratioP2
12024;SDS011;6073;53.230;10.444;2024-01-11T00:00:31;19.03;;;10.33;;
12024;SDS011;6073;53.230;10.444;2024-01-11T00:02:57;21.33;;;10.63;;
12024;SDS011;6073;53.230;10.444;2024-01-11T00:05:22;21.03;;;10.43;;
12024;SDS011;6073;53.230;10.444;2024-01-11T00:07:48;22.77;;;10.63;;
12024;SDS011;6073;53.230;10.444;2024-01-11T00:10:15;24.17;;;10.50;;
12024;SDS011;6073;53.230;10.444;2024-01-11T00:12:40;23.70;;;10.70;;
12024;SDS011;6073;53.230;10.444;2024-01-11T00:15:06;22.70;;;9.93;;
12024;SDS011;6073;53.230;10.444;2024-01-11T00:17:32;25.00;;;10.90;;
12024;SDS011;6073;53.230;10.444;2024-01-11T00:19:57;19.80;;;10.60;;
12024;SDS011;6073;53.230;10.444;2024-01-11T00:22:23;19.37;;;10.57;;
12024;SDS011;6073;53.230;10.444;2024-01-11T00:24:49;23.03;;;11.20;;
12024;SDS011;6073;53.230;10.444;2024-01-11T00:27:14;19.90;;;11.10;;
12024;SDS011;6073;53.230;10.444;2024-01-11T00:29:40;22.67;;;10.40;;
12024;SDS011;6073;53.230;10.444;2024-01-11T00:32:05;20.87;;;11.30;;
12024;SDS011;6073;53.230;10.444;2024-01-11T00:34:31;22.00;;;10.87;;
12024;SDS011;6073;53.230;10.444;2024-01-11T00:36:56;21.30;;;11.33;;
12024;SDS011;6073;53.230;10.444;2024-01-11T00:39:22;22.50;;;12.13;;
12024;SDS011;6073;53.230;10.444;2024-01-11T00:41:48;26.43;;;11.83;;
12024;SDS011;6073;53.230;10.444;2024-01-11T00:44:13;23.37;;;11.57;;
12024;SDS011;6073;53.230;10.444;2024-01-11T00:46:39;25.83;;;12.77;;
12024;SDS011;6073;53.230;10.444;2024-01-11T00:49:05;20.70;;;10.90;;
12024;SDS011;6073;53.230;10.444;2024-01-11T00:51:31;25.20;;;12.47;;
12024;SDS011;6073;53.230;10.444;2024-01-11T00:53:57;24.43;;;11.50;;
12024;SDS011;6073;53.230;10.444;2024-01-11T00:56:22;22.93;;;11.23;;
12024;SDS011;6073;53.230;10.444;2024-01-11T00:58:48;27.43;;;13.00;;
12024;SDS011;6073;53.230;10.444;2024-01-11T01:01:13;21.37;;;11.27;;
12024;SDS011;6073;53.230;10.444;2024-01-11T01:03:39;22.37;;;11.73;;
12024;SDS011;6073;53.230;10.444;2024-01-11T01:06:04;24.37;;;11.27;;
12024;SDS011;6073;53.230;10.444;2024-01-11T01:08:30;26.43;;;12.03;;
12024;SDS011;6073;53.230;10.444;2024-01-11T01:10:56;20.27;;;11.17;;
12024;SDS011;6073;53.230;10.444;2024-01-11T01:13:22;22.50;;;11.77;;
12024;SDS011;6073;53.230;10.444;2024-01-11T01:15:47;24.47;;;11.77;;
12024;SDS011;6073;53.230;10.444;2024-01-11T01:18:13;22.37;;;11.97;;
12024;SDS011;6073;53.230;10.444;2024-01-11T01:20:39;24.90;;;12.20;;
12024;SDS011;6073;53.230;10.444;2024-01-11T01:23:04;21.63;;;11.33;;
12024;SDS011;6073;53.230;10.444;2024-01-11T01:25:30;21.67;;;10.67;;
12024;SDS011;6073;53.230;10.444;2024-01-11T01:27:55;23.57;;;12.50;;
12024;SDS011;6073;53.230;10.444;2024-01-11T01:30:21;21.27;;;11.27;;
12024;SDS011;6073;53.230;10.444;2024-01-11T01:32:48;22.27;;;11.67;;
12024;SDS011;6073;53.230;10.444;2024-01-11T01:35:14;20.20;;;10.97;;
12024;SDS011;6073;53.230;10.444;2024-01-11T01:37:39;17.97;;;9.67;;
12024;SDS011;6073;53.230;10.444;2024-01-11T01:40:05;24.73;;;10.53;;
12024;SDS011;6073;53.230;10.444;2024-01-11T01:42:32;20.53;;;10.43;;
12024;SDS011;6073;53.230;10.444;2024-01-11T01:44:58;19.90;;;9.13;;
12024;SDS011;6073;53.230;10.444;2024-01-11T01:47:23;18.67;;;9.57;;
12024;SDS011;6073;53.230;10.444;2024-01-11T01:49:50;20.43;;;10.10;;
12024;SDS011;6073;53.230;10.444;2024-01-11T01:52:16;19.73;;;9.37;;
12024;SDS011;6073;53.230;10.444;2024-01-11T01:54:43;17.90;;;9.60;;
12024;SDS011;6073;53.230;10.444;2024-01-11T01:57:09;19.23;;;11.33;;
12024;SDS011;6073;53.230;10.444;2024-01-11T01:59:35;15.40;;;9.13;;
12024;SDS011;6073;53.230;10.444;2024-01-11T02:02:03;19.20;;;9.80;;
12024;SDS011;6073;53.230;10.444;2024-01-11T02:04:30;21.97;;;10.10;;
12024;SDS011;6073;53.230;10.444;2024-01-11T02:06:56;18.47;;;10.03;;
12024;SDS011;6073;53.230;10.444;2024-01-11T02:09:23;20.03;;;9.80;;
12024;SDS011;6073;53.230;10.444;2024-01-11T02:11:51;22.80;;;11.27;;
12024;SDS011;6073;53.230;10.444;2024-01-11T02:14:18;19.00;;;10.00;;
12024;SDS011;6073;53.230;10.444;2024-01-11T02:16:44;20.60;;;10.30;;
12024;SDS011;6073;53.230;10.444;2024-01-11T02:19:12;19.77;;;10.10;;
12024;SDS011;6073;53.230;10.444;2024-01-11T02:21:39;21.97;;;10.27;;
12024;SDS011;6073;53.230;10.444;2024-01-11T02:24:07;23.83;;;10.30;;
12024;SDS011;6073;53.230;10.444;2024-01-11T02:26:33;22.13;;;11.17;;
12024;SDS011;6073;53.230;10.444;2024-01-11T02:28:59;20.47;;;10.53;;
12024;SDS011;6073;53.230;10.444;2024-01-11T02:31:25;22.27;;;11.47;;
12024;SDS011;6073;53.230;10.444;2024-01-11T02:33:54;22.83;;;11.50;;
12024;SDS011;6073;53.230;10.444;2024-01-11T02:36:21;21.87;;;11.53;;
12024;SDS011;6073;53.230;10.444;2024-01-11T02:38:46;25.13;;;12.30;;
12024;SDS011;6073;53.230;10.444;2024-01-11T02:41:14;22.30;;;11.23;;
12024;SDS011;6073;53.230;10.444;2024-01-11T02:43:46;23.10;;;11.60;;
12024;SDS011;6073;53.230;10.444;2024-01-11T02:46:12;25.47;;;12.63;;
12024;SDS011;6073;53.230;10.444;2024-01-11T02:48:39;26.43;;;12.23;;
12024;SDS011;6073;53.230;10.444;2024-01-11T02:51:04;24.27;;;11.20;;
12024;SDS011;6073;53.230;10.444;2024-01-11T02:53:29;24.27;;;11.67;;
12024;SDS011;6073;53.230;10.444;2024-01-11T02:55:59;22.30;;;9.97;;
12024;SDS011;6073;53.230;10.444;2024-01-11T02:58:25;24.13;;;11.37;;
12024;SDS011;6073;53.230;10.444;2024-01-11T03:00:50;25.27;;;12.43;;
12024;SDS011;6073;53.230;10.444;2024-01-11T03:03:16;19.87;;;10.77;;
12024;SDS011;6073;53.230;10.444;2024-01-11T03:05:41;24.23;;;12.17;;
12024;SDS011;6073;53.230;10.444;2024-01-11T03:08:07;26.07;;;12.30;;
12024;SDS011;6073;53.230;10.444;2024-01-11T03:10:32;20.23;;;10.60;;
12024;SDS011;6073;53.230;10.444;2024-01-11T03:12:58;24.03;;;11.33;;
12024;SDS011;6073;53.230;10.444;2024-01-11T03:15:23;22.70;;;11.30;;
12024;SDS011;6073;53.230;10.444;2024-01-11T03:17:49;25.13;;;11.27;;
12024;SDS011;6073;53.230;10.444;2024-01-11T03:20:14;22.83;;;10.50;;
12024;SDS011;6073;53.230;10.444;2024-01-11T03:22:50;26.33;;;12.53;;
12024;SDS011;6073;53.230;10.444;2024-01-11T03:25:16;21.27;;;11.33;;
12024;SDS011;6073;53.230;10.444;2024-01-11T03:27:42;20.97;;;11.70;;
12024;SDS011;6073;53.230;10.444;2024-01-11T03:30:07;20.73;;;11.17;;
12024;SDS011;6073;53.230;10.444;2024-01-11T03:32:33;20.30;;;10.37;;
12024;SDS011;6073;53.230;10.444;2024-01-11T03:34:59;20.70;;;11.20;;
12024;SDS011;6073;53.230;10.444;2024-01-11T03:37:24;18.20;;;10.17;;
12024;SDS011;6073;53.230;10.444;2024-01-11T03:39:50;22.77;;;11.10;;
12024;SDS011;6073;53.230;10.444;2024-01-11T03:42:15;21.13;;;11.33;;
12024;SDS011;6073;53.230;10.444;2024-01-11T03:44:41;22.97;;;11.47;;
12024;SDS011;6073;53.230;10.444;2024-01-11T03:47:06;23.53;;;10.60;;
12024;SDS011;6073;53.230;10.444;2024-01-11T03:49:32;25.33;;;11.83;;
12024;SDS011;6073;53.230;10.444;2024-01-11T03:51:57;22.70;;;11.60;;
12024;SDS011;6073;53.230;10.444;2024-01-11T03:54:23;26.40;;;12.27;;
12024;SDS011;6073;53.230;10.444;2024-01-11T03:56:48;23.87;;;11.70;;
12024;SDS011;6073;53.230;10.444;2024-01-11T03:59:14;26.80;;;12.93;;
12024;SDS011;6073;53.230;10.444;2024-01-11T04:01:42;25.13;;;11.37;;
12024;SDS011;6073;53.230;10.444;2024-01-11T04:04:08;26.13;;;12.77;;
12024;SDS011;6073;53.230;10.444;2024-01-11T04:06:35;28.57;;;12.37;;
12024;SDS011;6073;53.230;10.444;2024-01-11T04:09:00;24.40;;;12.97;;
12024;SDS011;6073;53.230;10.444;2024-01-11T04:11:29;22.67;;;12.17;;
12024;SDS011;6073;53.230;10.444;2024-01-11T04:13:55;26.47;;;12.80;;
12024;SDS011;6073;53.230;10.444;2024-01-11T04:16:20;24.93;;;12.30;;
12024;SDS011;6073;53.230;10.444;2024-01-11T04:18:46;29.77;;;13.93;;
12024;SDS011;6073;53.230;10.444;2024-01-11T04:21:21;29.57;;;13.93;;
12024;SDS011;6073;53.230;10.444;2024-01-11T04:23:48;29.13;;;13.23;;
12024;SDS011;6073;53.230;10.444;2024-01-11T04:26:13;29.17;;;13.57;;
12024;SDS011;6073;53.230;10.444;2024-01-11T04:28:39;28.87;;;12.63;;
12024;SDS011;6073;53.230;10.444;2024-01-11T04:31:04;24.63;;;11.97;;
12024;SDS011;6073;53.230;10.444;2024-01-11T04:33:30;31.00;;;13.57;;
12024;SDS011;6073;53.230;10.444;2024-01-11T04:35:55;30.40;;;12.93;;
12024;SDS011;6073;53.230;10.444;2024-01-11T04:38:21;32.13;;;14.17;;
12024;SDS011;6073;53.230;10.444;2024-01-11T04:40:46;27.13;;;12.20;;
12024;SDS011;6073;53.230;10.444;2024-01-11T04:43:12;28.53;;;14.23;;
12024;SDS011;6073;53.230;10.444;2024-01-11T04:45:37;27.17;;;13.50;;
12024;SDS011;6073;53.230;10.444;2024-01-11T04:48:03;28.90;;;14.03;;
12024;SDS011;6073;53.230;10.444;2024-01-11T04:50:28;30.77;;;13.73;;
12024;SDS011;6073;53.230;10.444;2024-01-11T04:52:54;27.03;;;12.83;;
12024;SDS011;6073;53.230;10.444;2024-01-11T04:55:19;25.80;;;12.67;;
12024;SDS011;6073;53.230;10.444;2024-01-11T04:57:45;32.70;;;12.97;;
12024;SDS011;6073;53.230;10.444;2024-01-11T05:00:11;28.87;;;14.20;;
12024;SDS011;6073;53.230;10.444;2024-01-11T05:02:36;32.37;;;13.87;;
12024;SDS011;6073;53.230;10.444;2024-01-11T05:05:02;33.80;;;14.87;;
12024;SDS011;6073;53.230;10.444;2024-01-11T05:07:28;31.97;;;14.93;;
12024;SDS011;6073;53.230;10.444;2024-01-11T05:09:54;33.63;;;13.33;;
12024;SDS011;6073;53.230;10.444;2024-01-11T05:12:19;30.47;;;14.37;;
12024;SDS011;6073;53.230;10.444;2024-01-11T05:14:45;26.77;;;13.23;;
12024;SDS011;6073;53.230;10.444;2024-01-11T05:17:10;32.57;;;15.97;;
12024;SDS011;6073;53.230;10.444;2024-01-11T05:19:36;32.87;;;13.77;;
12024;SDS011;6073;53.230;10.444;2024-01-11T05:22:01;30.70;;;14.53;;
12024;SDS011;6073;53.230;10.444;2024-01-11T05:24:28;31.10;;;15.30;;
12024;SDS011;6073;53.230;10.444;2024-01-11T05:26:53;30.90;;;14.80;;
12024;SDS011;6073;53.230;10.444;2024-01-11T05:29:19;31.67;;;14.73;;
12024;SDS011;6073;53.230;10.444;2024-01-11T05:31:44;42.90;;;27.80;;
12024;SDS011;6073;53.230;10.444;2024-01-11T05:34:10;35.20;;;17.43;;
12024;SDS011;6073;53.230;10.444;2024-01-11T05:36:37;36.07;;;15.70;;
12024;SDS011;6073;53.230;10.444;2024-01-11T05:39:03;40.43;;;17.30;;
12024;SDS011;6073;53.230;10.444;2024-01-11T05:41:29;33.63;;;15.77;;
12024;SDS011;6073;53.230;10.444;2024-01-11T05:43:54;34.27;;;15.10;;
12024;SDS011;6073;53.230;10.444;2024-01-11T05:46:20;33.47;;;15.50;;
12024;SDS011;6073;53.230;10.444;2024-01-11T05:48:45;36.97;;;15.07;;
12024;SDS011;6073;53.230;10.444;2024-01-11T05:51:11;31.17;;;15.70;;
12024;SDS011;6073;53.230;10.444;2024-01-11T05:53:37;32.97;;;14.57;;
12024;SDS011;6073;53.230;10.444;2024-01-11T05:56:07;34.30;;;16.33;;
12024;SDS011;6073;53.230;10.444;2024-01-11T05:58:33;72.47;;;29.47;;
12024;SDS011;6073;53.230;10.444;2024-01-11T06:00:59;41.23;;;20.10;;
12024;SDS011;6073;53.230;10.444;2024-01-11T06:03:24;36.17;;;16.17;;
12024;SDS011;6073;53.230;10.444;2024-01-11T06:05:50;42.80;;;18.10;;
12024;SDS011;6073;53.230;10.444;2024-01-11T06:08:15;40.87;;;16.87;;
12024;SDS011;6073;53.230;10.444;2024-01-11T06:10:41;41.33;;;16.90;;
12024;SDS011;6073;53.230;10.444;2024-01-11T06:13:07;43.50;;;17.27;;
12024;SDS011;6073;53.230;10.444;2024-01-11T06:15:34;35.27;;;15.37;;
12024;SDS011;6073;53.230;10.444;2024-01-11T06:18:00;39.57;;;17.57;;
12024;SDS011;6073;53.230;10.444;2024-01-11T06:20:25;38.37;;;15.90;;
12024;SDS011;6073;53.230;10.444;2024-01-11T06:22:51;34.30;;;16.70;;
12024;SDS011;6073;53.230;10.444;2024-01-11T06:25:16;42.67;;;16.47;;
12024;SDS011;6073;53.230;10.444;2024-01-11T06:27:43;36.90;;;16.40;;
12024;SDS011;6073;53.230;10.444;2024-01-11T06:30:09;41.33;;;16.83;;
12024;SDS011;6073;53.230;10.444;2024-01-11T06:32:35;37.13;;;16.20;;
12024;SDS011;6073;53.230;10.444;2024-01-11T06:35:00;36.50;;;16.17;;
12024;SDS011;6073;53.230;10.444;2024-01-11T06:37:27;35.93;;;15.67;;
12024;SDS011;6073;53.230;10.444;2024-01-11T06:39:52;37.37;;;16.30;;
12024;SDS011;6073;53.230;10.444;2024-01-11T06:42:18;47.67;;;18.00;;
12024;SDS011;6073;53.230;10.444;2024-01-11T06:44:43;39.47;;;16.93;;
12024;SDS011;6073;53.230;10.444;2024-01-11T06:47:09;42.80;;;17.17;;
12024;SDS011;6073;53.230;10.444;2024-01-11T06:49:38;39.47;;;17.53;;
12024;SDS011;6073;53.230;10.444;2024-01-11T06:52:05;41.63;;;17.30;;
12024;SDS011;6073;53.230;10.444;2024-01-11T06:54:30;42.00;;;16.30;;
12024;SDS011;6073;53.230;10.444;2024-01-11T06:56:57;46.70;;;17.53;;
12024;SDS011;6073;53.230;10.444;2024-01-11T06:59:22;50.57;;;18.40;;
12024;SDS011;6073;53.230;10.444;2024-01-11T07:01:48;47.57;;;19.03;;
12024;SDS011;6073;53.230;10.444;2024-01-11T07:04:14;45.13;;;18.47;;
12024;SDS011;6073;53.230;10.444;2024-01-11T07:06:40;43.27;;;18.63;;
12024;SDS011;6073;53.230;10.444;2024-01-11T07:09:06;42.30;;;18.77;;
12024;SDS011;6073;53.230;10.444;2024-01-11T07:11:31;46.20;;;18.13;;
12024;SDS011;6073;53.230;10.444;2024-01-11T07:13:57;51.27;;;21.43;;
12024;SDS011;6073;53.230;10.444;2024-01-11T07:16:23;50.00;;;21.07;;
12024;SDS011;6073;53.230;10.444;2024-01-11T07:18:48;51.10;;;20.30;;
12024;SDS011;6073;53.230;10.444;2024-01-11T07:21:20;41.00;;;17.63;;
12024;SDS011;6073;53.230;10.444;2024-01-11T07:23:55;54.27;;;20.97;;
12024;SDS011;6073;53.230;10.444;2024-01-11T07:26:22;50.30;;;18.77;;
12024;SDS011;6073;53.230;10.444;2024-01-11T07:28:48;43.10;;;18.37;;
12024;SDS011;6073;53.230;10.444;2024-01-11T07:31:14;48.83;;;18.90;;
12024;SDS011;6073;53.230;10.444;2024-01-11T07:33:39;48.43;;;19.17;;
12024;SDS011;6073;53.230;10.444;2024-01-11T07:36:05;46.13;;;19.40;;
12024;SDS011;6073;53.230;10.444;2024-01-11T07:38:31;43.07;;;19.10;;
12024;SDS011;6073;53.230;10.444;2024-01-11T07:40:57;99.20;;;37.73;;
12024;SDS011;6073;53.230;10.444;2024-01-11T07:43:22;117.00;;;43.43;;
12024;SDS011;6073;53.230;10.444;2024-01-11T07:45:48;71.43;;;30.67;;
12024;SDS011;6073;53.230;10.444;2024-01-11T07:48:14;65.73;;;27.90;;
12024;SDS011;6073;53.230;10.444;2024-01-11T07:50:39;56.70;;;24.83;;
12024;SDS011;6073;53.230;10.444;2024-01-11T07:53:04;50.60;;;21.00;;
12024;SDS011;6073;53.230;10.444;2024-01-11T07:55:30;46.80;;;20.47;;
12024;SDS011;6073;53.230;10.444;2024-01-11T07:57:56;49.30;;;19.07;;
12024;SDS011;6073;53.230;10.444;2024-01-11T08:00:22;50.90;;;19.50;;
12024;SDS011;6073;53.230;10.444;2024-01-11T08:02:48;57.10;;;21.67;;
12024;SDS011;6073;53.230;10.444;2024-01-11T08:05:14;51.00;;;19.70;;
12024;SDS011;6073;53.230;10.444;2024-01-11T08:07:40;56.23;;;20.83;;
12024;SDS011;6073;53.230;10.444;2024-01-11T08:10:07;52.87;;;20.53;;
12024;SDS011;6073;53.230;10.444;2024-01-11T08:12:34;51.63;;;18.97;;
12024;SDS011;6073;53.230;10.444;2024-01-11T08:15:00;57.10;;;21.40;;
12024;SDS011;6073;53.230;10.444;2024-01-11T08:17:25;50.93;;;19.37;;
12024;SDS011;6073;53.230;10.444;2024-01-11T08:19:51;52.60;;;20.07;;
12024;SDS011;6073;53.230;10.444;2024-01-11T08:22:16;51.80;;;21.07;;
12024;SDS011;6073;53.230;10.444;2024-01-11T08:24:42;52.90;;;20.52;;
12024;SDS011;6073;53.230;10.444;2024-01-11T08:27:08;51.17;;;20.40;;
12024;SDS011;6073;53.230;10.444;2024-01-11T08:29:33;44.87;;;18.00;;
12024;SDS011;6073;53.230;10.444;2024-01-11T08:31:59;47.60;;;19.45;;
12024;SDS011;6073;53.230;10.444;2024-01-11T08:34:29;50.07;;;19.47;;
12024;SDS011;6073;53.230;10.444;2024-01-11T08:36:54;50.15;;;19.52;;
12024;SDS011;6073;53.230;10.444;2024-01-11T08:39:20;47.73;;;18.70;;
12024;SDS011;6073;53.230;10.444;2024-01-11T08:41:46;46.83;;;19.17;;
12024;SDS011;6073;53.230;10.444;2024-01-11T08:44:12;46.57;;;20.10;;
12024;SDS011;6073;53.230;10.444;2024-01-11T08:46:38;54.03;;;19.25;;
12024;SDS011;6073;53.230;10.444;2024-01-11T08:49:04;45.37;;;17.20;;
12024;SDS011;6073;53.230;10.444;2024-01-11T08:51:29;50.25;;;18.40;;
12024;SDS011;6073;53.230;10.444;2024-01-11T08:53:56;50.70;;;17.67;;
12024;SDS011;6073;53.230;10.444;2024-01-11T08:56:21;49.60;;;18.73;;
12024;SDS011;6073;53.230;10.444;2024-01-11T08:58:47;46.88;;;18.27;;
12024;SDS011;6073;53.230;10.444;2024-01-11T09:01:13;41.07;;;16.17;;
12024;SDS011;6073;53.230;10.444;2024-01-11T09:03:39;44.90;;;18.48;;
12024;SDS011;6073;53.230;10.444;2024-01-11T09:06:04;38.87;;;15.97;;
12024;SDS011;6073;53.230;10.444;2024-01-11T09:08:31;50.03;;;17.07;;
12024;SDS011;6073;53.230;10.444;2024-01-11T09:10:56;39.72;;;16.63;;
12024;SDS011;6073;53.230;10.444;2024-01-11T09:13:25;43.03;;;16.65;;
12024;SDS011;6073;53.230;10.444;2024-01-11T09:15:51;46.78;;;18.48;;
12024;SDS011;6073;53.230;10.444;2024-01-11T09:18:17;37.17;;;16.02;;
12024;SDS011;6073;53.230;10.444;2024-01-11T09:20:43;38.03;;;16.40;;
12024;SDS011;6073;53.230;10.444;2024-01-11T09:23:08;38.50;;;15.80;;
12024;SDS011;6073;53.230;10.444;2024-01-11T09:25:34;38.60;;;16.00;;
12024;SDS011;6073;53.230;10.444;2024-01-11T09:28:00;41.67;;;15.82;;
12024;SDS011;6073;53.230;10.444;2024-01-11T09:30:25;37.28;;;15.00;;
12024;SDS011;6073;53.230;10.444;2024-01-11T09:32:51;39.05;;;14.57;;
12024;SDS011;6073;53.230;10.444;2024-01-11T09:35:17;36.83;;;14.68;;
12024;SDS011;6073;53.230;10.444;2024-01-11T09:37:43;36.17;;;14.32;;
12024;SDS011;6073;53.230;10.444;2024-01-11T09:40:11;38.65;;;14.98;;
12024;SDS011;6073;53.230;10.444;2024-01-11T09:42:37;32.95;;;13.85;;
12024;SDS011;6073;53.230;10.444;2024-01-11T09:45:06;33.53;;;13.93;;
12024;SDS011;6073;53.230;10.444;2024-01-11T09:47:33;39.80;;;14.73;;
12024;SDS011;6073;53.230;10.444;2024-01-11T09:50:01;32.35;;;14.20;;
12024;SDS011;6073;53.230;10.444;2024-01-11T09:52:28;28.92;;;12.32;;
12024;SDS011;6073;53.230;10.444;2024-01-11T09:54:56;31.23;;;12.68;;
12024;SDS011;6073;53.230;10.444;2024-01-11T09:57:26;32.72;;;13.35;;
12024;SDS011;6073;53.230;10.444;2024-01-11T09:59:56;32.53;;;13.30;;
12024;SDS011;6073;53.230;10.444;2024-01-11T10:02:23;35.55;;;13.98;;
12024;SDS011;6073;53.230;10.444;2024-01-11T10:04:51;34.92;;;14.95;;
12024;SDS011;6073;53.230;10.444;2024-01-11T10:07:18;30.05;;;12.60;;
12024;SDS011;6073;53.230;10.444;2024-01-11T10:09:48;32.80;;;12.45;;
12024;SDS011;6073;53.230;10.444;2024-01-11T10:12:14;27.88;;;12.45;;
12024;SDS011;6073;53.230;10.444;2024-01-11T10:14:40;27.88;;;12.00;;
12024;SDS011;6073;53.230;10.444;2024-01-11T10:17:06;31.55;;;12.82;;
12024;SDS011;6073;53.230;10.444;2024-01-11T10:19:32;29.30;;;11.52;;
12024;SDS011;6073;53.230;10.444;2024-01-11T10:21:57;26.90;;;12.02;;
12024;SDS011;6073;53.230;10.444;2024-01-11T10:24:26;28.35;;;11.55;;
12024;SDS011;6073;53.230;10.444;2024-01-11T10:26:58;22.17;;;9.73;;
12024;SDS011;6073;53.230;10.444;2024-01-11T10:29:32;24.58;;;10.80;;
12024;SDS011;6073;53.230;10.444;2024-01-11T10:31:58;28.00;;;11.05;;
12024;SDS011;6073;53.230;10.444;2024-01-11T10:34:24;26.15;;;10.32;;
12024;SDS011;6073;53.230;10.444;2024-01-11T10:36:50;24.65;;;10.88;;
12024;SDS011;6073;53.230;10.444;2024-01-11T10:39:16;23.80;;;10.30;;
12024;SDS011;6073;53.230;10.444;2024-01-11T10:41:45;26.15;;;10.35;;
12024;SDS011;6073;53.230;10.444;2024-01-11T10:44:19;26.85;;;11.05;;
12024;SDS011;6073;53.230;10.444;2024-01-11T10:46:47;25.38;;;9.85;;
12024;SDS011;6073;53.230;10.444;2024-01-11T10:49:18;24.67;;;10.57;;
12024;SDS011;6073;53.230;10.444;2024-01-11T10:51:45;22.15;;;9.73;;
12024;SDS011;6073;53.230;10.444;2024-01-11T10:54:17;27.17;;;10.98;;
12024;SDS011;6073;53.230;10.444;2024-01-11T10:56:45;23.10;;;10.15;;
12024;SDS011;6073;53.230;10.444;2024-01-11T10:59:12;22.55;;;9.45;;
12024;SDS011;6073;53.230;10.444;2024-01-11T11:01:39;23.45;;;10.48;;
12024;SDS011;6073;53.230;10.444;2024-01-11T11:04:04;26.73;;;10.43;;
12024;SDS011;6073;53.230;10.444;2024-01-11T11:06:33;26.20;;;9.77;;
12024;SDS011;6073;53.230;10.444;2024-01-11T11:09:00;22.92;;;10.40;;
12024;SDS011;6073;53.230;10.444;2024-01-11T11:11:28;21.52;;;9.95;;
12024;SDS011;6073;53.230;10.444;2024-01-11T11:13:55;25.30;;;11.20;;
12024;SDS011;6073;53.230;10.444;2024-01-11T11:16:26;22.13;;;9.77;;
12024;SDS011;6073;53.230;10.444;2024-01-11T11:18:54;23.13;;;9.63;;
12024;SDS011;6073;53.230;10.444;2024-01-11T11:21:20;20.85;;;9.23;;
12024;SDS011;6073;53.230;10.444;2024-01-11T11:23:46;23.58;;;9.90;;
12024;SDS011;6073;53.230;10.444;2024-01-11T11:26:18;23.08;;;10.55;;
12024;SDS011;6073;53.230;10.444;2024-01-11T11:28:44;24.38;;;11.40;;
12024;SDS011;6073;53.230;10.444;2024-01-11T11:31:13;29.20;;;10.18;;
12024;SDS011;6073;53.230;10.444;2024-01-11T11:33:38;26.65;;;11.65;;
12024;SDS011;6073;53.230;10.444;2024-01-11T11:36:05;26.45;;;10.77;;
12024;SDS011;6073;53.230;10.444;2024-01-11T11:38:36;22.80;;;11.13;;
12024;SDS011;6073;53.230;10.444;2024-01-11T11:41:03;30.95;;;12.55;;
12024;SDS011;6073;53.230;10.444;2024-01-11T11:43:29;27.73;;;11.27;;
12024;SDS011;6073;53.230;10.444;2024-01-11T11:45:56;32.28;;;13.35;;
12024;SDS011;6073;53.230;10.444;2024-01-11T11:51:10;27.63;;;11.75;;
12024;SDS011;6073;53.230;10.444;2024-01-11T11:53:46;27.58;;;10.90;;
12024;SDS011;6073;53.230;10.444;2024-01-11T11:56:13;31.05;;;12.07;;
12024;SDS011;6073;53.230;10.444;2024-01-11T11:58:42;29.55;;;12.68;;
12024;SDS011;6073;53.230;10.444;2024-01-11T12:01:08;31.83;;;11.98;;
12024;SDS011;6073;53.230;10.444;2024-01-11T12:03:35;27.85;;;12.05;;
12024;SDS011;6073;53.230;10.444;2024-01-11T12:06:05;36.42;;;13.82;;
12024;SDS011;6073;53.230;10.444;2024-01-11T12:08:32;36.97;;;15.23;;
12024;SDS011;6073;53.230;10.444;2024-01-11T12:10:58;39.47;;;16.35;;
12024;SDS011;6073;53.230;10.444;2024-01-11T12:13:24;31.20;;;13.77;;
12024;SDS011;6073;53.230;10.444;2024-01-11T12:15:50;27.70;;;11.40;;
12024;SDS011;6073;53.230;10.444;2024-01-11T12:18:16;38.88;;;15.23;;
12024;SDS011;6073;53.230;10.444;2024-01-11T12:20:42;33.65;;;13.18;;
12024;SDS011;6073;53.230;10.444;2024-01-11T12:23:07;32.53;;;13.50;;
12024;SDS011;6073;53.230;10.444;2024-01-11T12:25:33;31.60;;;13.52;;
12024;SDS011;6073;53.230;10.444;2024-01-11T12:27:58;24.80;;;11.10;;
12024;SDS011;6073;53.230;10.444;2024-01-11T12:30:24;24.20;;;11.45;;
12024;SDS011;6073;53.230;10.444;2024-01-11T12:32:50;33.22;;;14.07;;
12024;SDS011;6073;53.230;10.444;2024-01-11T12:35:17;29.27;;;12.73;;
12024;SDS011;6073;53.230;10.444;2024-01-11T12:37:59;25.33;;;10.80;;
12024;SDS011;6073;53.230;10.444;2024-01-11T12:40:26;25.98;;;11.80;;
12024;SDS011;6073;53.230;10.444;2024-01-11T12:42:53;21.40;;;10.38;;
12024;SDS011;6073;53.230;10.444;2024-01-11T12:45:21;20.85;;;9.45;;
12024;SDS011;6073;53.230;10.444;2024-01-11T12:47:47;20.73;;;9.55;;
12024;SDS011;6073;53.230;10.444;2024-01-11T12:50:13;23.88;;;9.45;;
12024;SDS011;6073;53.230;10.444;2024-01-11T12:52:39;22.52;;;9.55;;
12024;SDS011;6073;53.230;10.444;2024-01-11T12:55:06;22.15;;;10.20;;
12024;SDS011;6073;53.230;10.444;2024-01-11T12:57:33;24.23;;;10.35;;
12024;SDS011;6073;53.230;10.444;2024-01-11T13:00:17;26.65;;;11.23;;
12024;SDS011;6073;53.230;10.444;2024-01-11T13:02:43;21.95;;;10.13;;
12024;SDS011;6073;53.230;10.444;2024-01-11T13:05:11;24.27;;;9.45;;
12024;SDS011;6073;53.230;10.444;2024-01-11T13:07:36;21.92;;;9.95;;
12024;SDS011;6073;53.230;10.444;2024-01-11T13:10:02;22.00;;;10.35;;
12024;SDS011;6073;53.230;10.444;2024-01-11T13:12:29;25.63;;;11.05;;
12024;SDS011;6073;53.230;10.444;2024-01-11T13:14:55;25.60;;;11.00;;
12024;SDS011;6073;53.230;10.444;2024-01-11T13:17:21;19.45;;;9.70;;
12024;SDS011;6073;53.230;10.444;2024-01-11T13:19:46;24.65;;;11.80;;
12024;SDS011;6073;53.230;10.444;2024-01-11T13:22:12;27.08;;;10.30;;
12024;SDS011;6073;53.230;10.444;2024-01-11T13:24:38;25.85;;;11.50;;
12024;SDS011;6073;53.230;10.444;2024-01-11T13:27:03;26.60;;;11.30;;
12024;SDS011;6073;53.230;10.444;2024-01-11T13:29:29;24.98;;;10.75;;
12024;SDS011;6073;53.230;10.444;2024-01-11T13:31:55;23.52;;;10.07;;
12024;SDS011;6073;53.230;10.444;2024-01-11T13:34:20;21.98;;;10.30;;
12024;SDS011;6073;53.230;10.444;2024-01-11T13:36:46;22.25;;;9.77;;
12024;SDS011;6073;53.230;10.444;2024-01-11T13:39:11;27.90;;;10.00;;
12024;SDS011;6073;53.230;10.444;2024-01-11T13:41:37;22.92;;;9.75;;
12024;SDS011;6073;53.230;10.444;2024-01-11T13:44:02;21.45;;;10.13;;
12024;SDS011;6073;53.230;10.444;2024-01-11T13:46:30;26.55;;;12.13;;
12024;SDS011;6073;53.230;10.444;2024-01-11T13:48:57;27.48;;;11.40;;
12024;SDS011;6073;53.230;10.444;2024-01-11T13:51:23;29.33;;;12.25;;
12024;SDS011;6073;53.230;10.444;2024-01-11T13:53:48;27.00;;;11.48;;
12024;SDS011;6073;53.230;10.444;2024-01-11T13:56:14;25.25;;;11.98;;
12024;SDS011;6073;53.230;10.444;2024-01-11T13:58:39;31.42;;;12.40;;
12024;SDS011;6073;53.230;10.444;2024-01-11T14:01:05;29.83;;;12.73;;
12024;SDS011;6073;53.230;10.444;2024-01-11T14:03:32;26.30;;;11.75;;
12024;SDS011;6073;53.230;10.444;2024-01-11T14:05:58;29.05;;;12.32;;
12024;SDS011;6073;53.230;10.444;2024-01-11T14:08:24;29.50;;;12.10;;
12024;SDS011;6073;53.230;10.444;2024-01-11T14:10:50;30.73;;;12.18;;
12024;SDS011;6073;53.230;10.444;2024-01-11T14:13:15;28.33;;;12.07;;
12024;SDS011;6073;53.230;10.444;2024-01-11T14:15:41;27.67;;;11.93;;
12024;SDS011;6073;53.230;10.444;2024-01-11T14:18:07;28.02;;;12.50;;
12024;SDS011;6073;53.230;10.444;2024-01-11T14:20:34;31.75;;;13.27;;